sensor_id;sensor_type;location;lat;lon;timestamp;P1;durP1;ratioP1;P2;durP2;ratioP2
16472;SDS011;8347;52.486;13.432;2023-02-12T00:00:44;16.33;;;7.70;;
16472;SDS011;8347;52.486;13.432;2023-02-12T00:03:30;14.35;;;6.97;;
16472;SDS011;8347;52.486;13.432;2023-02-12T00:06:17;18.73;;;7.15;;
16472;SDS011;8347;52.486;13.432;2023-02-12T00:09:04;20.05;;;7.90;;
16472;SDS011;8347;52.486;13.432;2023-02-12T00:11:50;20.00;;;8.57;;
16472;SDS011;8347;52.486;13.432;2023-02-12T00:14:37;13.95;;;8.75;;
16472;SDS011;8347;52.486;13.432;2023-02-12T00:17:24;19.10;;;8.25;;
16472;SDS011;8347;52.486;13.432;2023-02-12T00:20:11;18.30;;;8.10;;
16472;SDS011;8347;52.486;13.432;2023-02-12T00:22:57;19.75;;;7.13;;
16472;SDS011;8347;52.486;13.432;2023-02-12T00:25:44;24.92;;;7.88;;
16472;SDS011;8347;52.486;13.432;2023-02-12T00:28:30;19.65;;;7.15;;
16472;SDS011;8347;52.486;13.432;2023-02-12T00:31:18;19.67;;;7.68;;
16472;SDS011;8347;52.486;13.432;2023-02-12T00:34:08;22.77;;;6.13;;
16472;SDS011;8347;52.486;13.432;2023-02-12T00:36:55;19.75;;;6.53;;
16472;SDS011;8347;52.486;13.432;2023-02-12T00:39:42;22.95;;;7.22;;
16472;SDS011;8347;52.486;13.432;2023-02-12T00:42:30;21.30;;;6.38;;
16472;SDS011;8347;52.486;13.432;2023-02-12T00:45:16;16.90;;;6.53;;
16472;SDS011;8347;52.486;13.432;2023-02-12T00:48:03;24.90;;;7.82;;
16472;SDS011;8347;52.486;13.432;2023-02-12T00:50:50;19.10;;;6.60;;
16472;SDS011;8347;52.486;13.432;2023-02-12T00:53:36;16.88;;;6.45;;
16472;SDS011;8347;52.486;13.432;2023-02-12T00:56:23;23.05;;;6.05;;
16472;SDS011;8347;52.486;13.432;2023-02-12T00:59:09;24.65;;;7.82;;
16472;SDS011;8347;52.486;13.432;2023-02-12T01:01:56;19.20;;;7.07;;
16472;SDS011;8347;52.486;13.432;2023-02-12T01:04:43;18.35;;;6.25;;
16472;SDS011;8347;52.486;13.432;2023-02-12T01:07:29;15.80;;;6.10;;
16472;SDS011;8347;52.486;13.432;2023-02-12T01:10:16;20.08;;;6.85;;
16472;SDS011;8347;52.486;13.432;2023-02-12T01:13:03;16.77;;;6.38;;
16472;SDS011;8347;52.486;13.432;2023-02-12T01:15:59;20.35;;;7.18;;
16472;SDS011;8347;52.486;13.432;2023-02-12T01:18:46;20.45;;;6.70;;
16472;SDS011;8347;52.486;13.432;2023-02-12T01:21:33;16.35;;;6.68;;
16472;SDS011;8347;52.486;13.432;2023-02-12T01:24:20;26.58;;;6.88;;
16472;SDS011;8347;52.486;13.432;2023-02-12T01:27:06;17.20;;;6.15;;
16472;SDS011;8347;52.486;13.432;2023-02-12T01:29:53;19.50;;;6.40;;
16472;SDS011;8347;52.486;13.432;2023-02-12T01:32:40;15.57;;;6.13;;
16472;SDS011;8347;52.486;13.432;2023-02-12T01:35:26;18.90;;;5.85;;
16472;SDS011;8347;52.486;13.432;2023-02-12T01:38:13;15.88;;;5.05;;
16472;SDS011;8347;52.486;13.432;2023-02-12T01:41:07;21.42;;;6.07;;
16472;SDS011;8347;52.486;13.432;2023-02-12T01:47:03;19.92;;;6.32;;
16472;SDS011;8347;52.486;13.432;2023-02-12T01:49:50;18.27;;;5.18;;
16472;SDS011;8347;52.486;13.432;2023-02-12T01:52:39;13.77;;;5.10;;
16472;SDS011;8347;52.486;13.432;2023-02-12T01:55:26;15.32;;;5.07;;
16472;SDS011;8347;52.486;13.432;2023-02-12T01:58:14;18.52;;;4.47;;
16472;SDS011;8347;52.486;13.432;2023-02-12T02:01:05;16.27;;;4.80;;
16472;SDS011;8347;52.486;13.432;2023-02-12T02:03:53;19.10;;;4.90;;
16472;SDS011;8347;52.486;13.432;2023-02-12T02:06:43;16.27;;;4.78;;
16472;SDS011;8347;52.486;13.432;2023-02-12T02:09:41;13.70;;;4.53;;
16472;SDS011;8347;52.486;13.432;2023-02-12T02:12:28;14.30;;;4.97;;
16472;SDS011;8347;52.486;13.432;2023-02-12T02:15:36;17.73;;;6.00;;
16472;SDS011;8347;52.486;13.432;2023-02-12T02:18:25;19.92;;;4.65;;
16472;SDS011;8347;52.486;13.432;2023-02-12T02:24:18;20.15;;;4.63;;
16472;SDS011;8347;52.486;13.432;2023-02-12T02:27:19;18.10;;;4.88;;
16472;SDS011;8347;52.486;13.432;2023-02-12T02:33:38;22.63;;;5.80;;
16472;SDS011;8347;52.486;13.432;2023-02-12T02:36:39;19.17;;;4.45;;
16472;SDS011;8347;52.486;13.432;2023-02-12T02:39:28;19.20;;;4.22;;
16472;SDS011;8347;52.486;13.432;2023-02-12T02:42:27;13.32;;;4.93;;
16472;SDS011;8347;52.486;13.432;2023-02-12T02:45:30;13.68;;;4.55;;
16472;SDS011;8347;52.486;13.432;2023-02-12T02:51:17;16.10;;;4.53;;
16472;SDS011;8347;52.486;13.432;2023-02-12T02:54:06;17.98;;;4.43;;
16472;SDS011;8347;52.486;13.432;2023-02-12T02:56:56;14.80;;;5.95;;
16472;SDS011;8347;52.486;13.432;2023-02-12T02:59:54;22.65;;;6.05;;
16472;SDS011;8347;52.486;13.432;2023-02-12T03:02:48;18.20;;;6.93;;
16472;SDS011;8347;52.486;13.432;2023-02-12T03:05:44;18.63;;;5.35;;
16472;SDS011;8347;52.486;13.432;2023-02-12T03:08:33;16.25;;;5.15;;
16472;SDS011;8347;52.486;13.432;2023-02-12T03:11:27;15.68;;;5.68;;
16472;SDS011;8347;52.486;13.432;2023-02-12T03:14:17;18.23;;;6.18;;
16472;SDS011;8347;52.486;13.432;2023-02-12T03:17:16;15.55;;;4.95;;
16472;SDS011;8347;52.486;13.432;2023-02-12T03:20:07;16.98;;;5.13;;
16472;SDS011;8347;52.486;13.432;2023-02-12T03:22:57;24.08;;;8.75;;
16472;SDS011;8347;52.486;13.432;2023-02-12T03:25:56;17.60;;;7.10;;
16472;SDS011;8347;52.486;13.432;2023-02-12T03:28:45;16.48;;;6.43;;
16472;SDS011;8347;52.486;13.432;2023-02-12T03:31:37;16.15;;;6.32;;
16472;SDS011;8347;52.486;13.432;2023-02-12T03:37:25;19.55;;;5.95;;
16472;SDS011;8347;52.486;13.432;2023-02-12T03:40:21;16.70;;;5.93;;
16472;SDS011;8347;52.486;13.432;2023-02-12T03:43:23;17.63;;;5.38;;
16472;SDS011;8347;52.486;13.432;2023-02-12T03:46:16;13.57;;;6.20;;
16472;SDS011;8347;52.486;13.432;2023-02-12T03:49:39;21.15;;;6.10;;
16472;SDS011;8347;52.486;13.432;2023-02-12T03:52:23;20.38;;;6.97;;
16472;SDS011;8347;52.486;13.432;2023-02-12T03:55:09;12.25;;;5.70;;
16472;SDS011;8347;52.486;13.432;2023-02-12T03:57:58;13.85;;;5.25;;
16472;SDS011;8347;52.486;13.432;2023-02-12T04:00:46;17.67;;;5.80;;
16472;SDS011;8347;52.486;13.432;2023-02-12T04:03:33;14.85;;;5.85;;
16472;SDS011;8347;52.486;13.432;2023-02-12T04:06:21;23.40;;;6.82;;
16472;SDS011;8347;52.486;13.432;2023-02-12T04:09:10;18.85;;;6.93;;
16472;SDS011;8347;52.486;13.432;2023-02-12T04:12:20;19.88;;;6.47;;
16472;SDS011;8347;52.486;13.432;2023-02-12T04:15:28;18.13;;;6.47;;
16472;SDS011;8347;52.486;13.432;2023-02-12T04:18:39;25.58;;;7.22;;
16472;SDS011;8347;52.486;13.432;2023-02-12T04:21:40;16.13;;;6.03;;
16472;SDS011;8347;52.486;13.432;2023-02-12T04:27:28;16.85;;;5.40;;
16472;SDS011;8347;52.486;13.432;2023-02-12T04:30:24;23.25;;;7.20;;
16472;SDS011;8347;52.486;13.432;2023-02-12T04:33:34;22.40;;;5.68;;
16472;SDS011;8347;52.486;13.432;2023-02-12T04:36:27;15.98;;;5.57;;
16472;SDS011;8347;52.486;13.432;2023-02-12T04:39:21;20.67;;;6.00;;
16472;SDS011;8347;52.486;13.432;2023-02-12T04:42:11;13.48;;;5.57;;
16472;SDS011;8347;52.486;13.432;2023-02-12T04:44:57;18.55;;;5.45;;
16472;SDS011;8347;52.486;13.432;2023-02-12T04:47:44;14.00;;;4.97;;
16472;SDS011;8347;52.486;13.432;2023-02-12T04:50:41;19.80;;;6.80;;
16472;SDS011;8347;52.486;13.432;2023-02-12T04:53:28;15.88;;;5.38;;
16472;SDS011;8347;52.486;13.432;2023-02-12T04:56:15;18.00;;;6.15;;
16472;SDS011;8347;52.486;13.432;2023-02-12T04:59:02;9.80;;;4.47;;
16472;SDS011;8347;52.486;13.432;2023-02-12T05:01:49;14.98;;;5.72;;
16472;SDS011;8347;52.486;13.432;2023-02-12T05:04:35;16.05;;;5.78;;
16472;SDS011;8347;52.486;13.432;2023-02-12T05:07:22;23.27;;;6.75;;
16472;SDS011;8347;52.486;13.432;2023-02-12T05:10:08;16.80;;;6.30;;
16472;SDS011;8347;52.486;13.432;2023-02-12T05:12:55;17.23;;;5.57;;
16472;SDS011;8347;52.486;13.432;2023-02-12T05:15:42;17.35;;;4.97;;
16472;SDS011;8347;52.486;13.432;2023-02-12T05:18:29;15.60;;;4.75;;
16472;SDS011;8347;52.486;13.432;2023-02-12T05:21:15;14.15;;;4.95;;
16472;SDS011;8347;52.486;13.432;2023-02-12T05:24:02;15.43;;;5.47;;
16472;SDS011;8347;52.486;13.432;2023-02-12T05:26:49;19.45;;;5.30;;
16472;SDS011;8347;52.486;13.432;2023-02-12T05:29:35;18.77;;;4.82;;
16472;SDS011;8347;52.486;13.432;2023-02-12T05:32:22;14.00;;;4.93;;
16472;SDS011;8347;52.486;13.432;2023-02-12T05:35:09;12.20;;;4.50;;
16472;SDS011;8347;52.486;13.432;2023-02-12T05:37:55;16.80;;;4.88;;
16472;SDS011;8347;52.486;13.432;2023-02-12T05:40:42;19.08;;;5.22;;
16472;SDS011;8347;52.486;13.432;2023-02-12T05:43:28;25.08;;;6.25;;
16472;SDS011;8347;52.486;13.432;2023-02-12T05:46:15;14.35;;;5.20;;
16472;SDS011;8347;52.486;13.432;2023-02-12T05:49:06;19.08;;;4.40;;
16472;SDS011;8347;52.486;13.432;2023-02-12T05:51:54;22.55;;;6.78;;
16472;SDS011;8347;52.486;13.432;2023-02-12T05:54:41;19.35;;;4.88;;
16472;SDS011;8347;52.486;13.432;2023-02-12T05:57:27;17.92;;;5.00;;
16472;SDS011;8347;52.486;13.432;2023-02-12T06:00:14;17.67;;;5.45;;
16472;SDS011;8347;52.486;13.432;2023-02-12T06:03:00;15.32;;;5.97;;
16472;SDS011;8347;52.486;13.432;2023-02-12T06:05:50;19.23;;;5.70;;
16472;SDS011;8347;52.486;13.432;2023-02-12T06:08:37;24.80;;;5.95;;
16472;SDS011;8347;52.486;13.432;2023-02-12T06:11:24;23.23;;;6.15;;
16472;SDS011;8347;52.486;13.432;2023-02-12T06:14:12;15.27;;;5.22;;
16472;SDS011;8347;52.486;13.432;2023-02-12T06:17:00;20.95;;;8.00;;
16472;SDS011;8347;52.486;13.432;2023-02-12T06:19:46;13.68;;;5.35;;
16472;SDS011;8347;52.486;13.432;2023-02-12T06:22:32;19.65;;;5.05;;
16472;SDS011;8347;52.486;13.432;2023-02-12T06:25:19;21.90;;;7.15;;
16472;SDS011;8347;52.486;13.432;2023-02-12T06:28:05;13.35;;;5.25;;
16472;SDS011;8347;52.486;13.432;2023-02-12T06:30:52;15.98;;;6.25;;
16472;SDS011;8347;52.486;13.432;2023-02-12T06:33:38;15.70;;;5.15;;
16472;SDS011;8347;52.486;13.432;2023-02-12T06:36:24;14.38;;;6.03;;
16472;SDS011;8347;52.486;13.432;2023-02-12T06:39:12;14.98;;;5.32;;
16472;SDS011;8347;52.486;13.432;2023-02-12T06:41:59;18.90;;;5.88;;
16472;SDS011;8347;52.486;13.432;2023-02-12T06:44:46;17.15;;;5.18;;
16472;SDS011;8347;52.486;13.432;2023-02-12T06:47:33;18.60;;;5.80;;
16472;SDS011;8347;52.486;13.432;2023-02-12T06:50:19;22.60;;;6.32;;
16472;SDS011;8347;52.486;13.432;2023-02-12T06:53:06;24.75;;;6.28;;
16472;SDS011;8347;52.486;13.432;2023-02-12T06:55:52;24.90;;;6.97;;
16472;SDS011;8347;52.486;13.432;2023-02-12T06:58:40;18.33;;;6.97;;
16472;SDS011;8347;52.486;13.432;2023-02-12T07:01:27;22.10;;;5.78;;
16472;SDS011;8347;52.486;13.432;2023-02-12T07:04:14;15.50;;;5.38;;
16472;SDS011;8347;52.486;13.432;2023-02-12T07:07:02;21.27;;;5.75;;
16472;SDS011;8347;52.486;13.432;2023-02-12T07:09:49;14.45;;;5.70;;
16472;SDS011;8347;52.486;13.432;2023-02-12T07:12:35;14.98;;;5.35;;
16472;SDS011;8347;52.486;13.432;2023-02-12T07:15:22;13.48;;;5.03;;
16472;SDS011;8347;52.486;13.432;2023-02-12T07:18:08;22.00;;;5.70;;
16472;SDS011;8347;52.486;13.432;2023-02-12T07:20:55;20.33;;;6.30;;
16472;SDS011;8347;52.486;13.432;2023-02-12T07:23:44;12.35;;;4.78;;
16472;SDS011;8347;52.486;13.432;2023-02-12T07:26:35;21.67;;;7.40;;
16472;SDS011;8347;52.486;13.432;2023-02-12T07:29:21;14.77;;;4.88;;
16472;SDS011;8347;52.486;13.432;2023-02-12T07:32:07;22.40;;;6.85;;
16472;SDS011;8347;52.486;13.432;2023-02-12T07:34:54;19.58;;;4.70;;
16472;SDS011;8347;52.486;13.432;2023-02-12T07:37:40;11.70;;;5.72;;
16472;SDS011;8347;52.486;13.432;2023-02-12T07:40:27;23.25;;;6.35;;
16472;SDS011;8347;52.486;13.432;2023-02-12T07:43:13;16.90;;;4.78;;
16472;SDS011;8347;52.486;13.432;2023-02-12T07:46:07;16.83;;;5.43;;
16472;SDS011;8347;52.486;13.432;2023-02-12T07:48:58;16.00;;;4.82;;
16472;SDS011;8347;52.486;13.432;2023-02-12T07:51:46;13.90;;;4.88;;
16472;SDS011;8347;52.486;13.432;2023-02-12T07:54:32;22.42;;;6.78;;
16472;SDS011;8347;52.486;13.432;2023-02-12T07:57:19;25.02;;;6.30;;
16472;SDS011;8347;52.486;13.432;2023-02-12T08:00:05;16.48;;;6.03;;
16472;SDS011;8347;52.486;13.432;2023-02-12T08:02:57;20.50;;;5.35;;
16472;SDS011;8347;52.486;13.432;2023-02-12T08:05:44;29.35;;;6.05;;
16472;SDS011;8347;52.486;13.432;2023-02-12T08:08:31;20.40;;;5.28;;
16472;SDS011;8347;52.486;13.432;2023-02-12T08:11:17;12.75;;;4.55;;
16472;SDS011;8347;52.486;13.432;2023-02-12T08:14:04;13.80;;;4.85;;
16472;SDS011;8347;52.486;13.432;2023-02-12T08:16:51;12.15;;;3.72;;
16472;SDS011;8347;52.486;13.432;2023-02-12T08:19:38;19.48;;;5.40;;
16472;SDS011;8347;52.486;13.432;2023-02-12T08:22:24;15.93;;;4.32;;
16472;SDS011;8347;52.486;13.432;2023-02-12T08:25:10;25.33;;;5.97;;
16472;SDS011;8347;52.486;13.432;2023-02-12T08:27:57;11.35;;;4.10;;
16472;SDS011;8347;52.486;13.432;2023-02-12T08:30:43;9.50;;;4.13;;
16472;SDS011;8347;52.486;13.432;2023-02-12T08:33:30;19.73;;;4.28;;
16472;SDS011;8347;52.486;13.432;2023-02-12T08:36:18;20.38;;;6.43;;
16472;SDS011;8347;52.486;13.432;2023-02-12T08:39:06;11.02;;;4.63;;
16472;SDS011;8347;52.486;13.432;2023-02-12T08:41:57;17.88;;;6.18;;
16472;SDS011;8347;52.486;13.432;2023-02-12T08:44:44;23.35;;;7.22;;
16472;SDS011;8347;52.486;13.432;2023-02-12T08:47:30;23.27;;;7.10;;
16472;SDS011;8347;52.486;13.432;2023-02-12T08:50:17;14.82;;;4.68;;
16472;SDS011;8347;52.486;13.432;2023-02-12T08:53:03;12.65;;;5.28;;
16472;SDS011;8347;52.486;13.432;2023-02-12T08:55:50;11.65;;;4.68;;
16472;SDS011;8347;52.486;13.432;2023-02-12T08:58:37;24.20;;;5.78;;
16472;SDS011;8347;52.486;13.432;2023-02-12T09:01:25;21.73;;;7.68;;
16472;SDS011;8347;52.486;13.432;2023-02-12T09:04:17;13.80;;;5.05;;
16472;SDS011;8347;52.486;13.432;2023-02-12T09:07:06;14.45;;;5.43;;
16472;SDS011;8347;52.486;13.432;2023-02-12T09:09:53;15.90;;;5.93;;
16472;SDS011;8347;52.486;13.432;2023-02-12T09:12:39;20.27;;;5.95;;
16472;SDS011;8347;52.486;13.432;2023-02-12T09:15:25;23.58;;;5.95;;
16472;SDS011;8347;52.486;13.432;2023-02-12T09:18:12;15.45;;;5.10;;
16472;SDS011;8347;52.486;13.432;2023-02-12T09:21:04;17.67;;;6.13;;
16472;SDS011;8347;52.486;13.432;2023-02-12T09:23:51;24.55;;;7.43;;
16472;SDS011;8347;52.486;13.432;2023-02-12T09:26:38;24.25;;;7.70;;
16472;SDS011;8347;52.486;13.432;2023-02-12T09:29:25;17.13;;;6.28;;
16472;SDS011;8347;52.486;13.432;2023-02-12T09:32:11;14.18;;;5.15;;
16472;SDS011;8347;52.486;13.432;2023-02-12T09:34:58;16.17;;;6.03;;
16472;SDS011;8347;52.486;13.432;2023-02-12T09:37:44;12.55;;;4.82;;
16472;SDS011;8347;52.486;13.432;2023-02-12T09:40:46;10.25;;;4.32;;
16472;SDS011;8347;52.486;13.432;2023-02-12T09:43:41;15.52;;;4.43;;
16472;SDS011;8347;52.486;13.432;2023-02-12T09:46:52;19.27;;;5.45;;
16472;SDS011;8347;52.486;13.432;2023-02-12T09:52:47;16.25;;;5.53;;
16472;SDS011;8347;52.486;13.432;2023-02-12T09:55:34;19.60;;;5.97;;
16472;SDS011;8347;52.486;13.432;2023-02-12T10:01:28;13.57;;;5.00;;
16472;SDS011;8347;52.486;13.432;2023-02-12T10:04:15;15.40;;;5.82;;
16472;SDS011;8347;52.486;13.432;2023-02-12T10:13:17;15.65;;;6.00;;
16472;SDS011;8347;52.486;13.432;2023-02-12T10:16:13;19.42;;;6.13;;
16472;SDS011;8347;52.486;13.432;2023-02-12T10:19:07;22.20;;;6.38;;
16472;SDS011;8347;52.486;13.432;2023-02-12T10:22:42;15.77;;;6.45;;
16472;SDS011;8347;52.486;13.432;2023-02-12T10:25:43;18.08;;;5.88;;
16472;SDS011;8347;52.486;13.432;2023-02-12T10:28:31;15.40;;;7.22;;
16472;SDS011;8347;52.486;13.432;2023-02-12T10:31:22;16.77;;;8.25;;
16472;SDS011;8347;52.486;13.432;2023-02-12T10:34:27;20.27;;;6.82;;
16472;SDS011;8347;52.486;13.432;2023-02-12T10:40:18;16.25;;;6.28;;
16472;SDS011;8347;52.486;13.432;2023-02-12T10:43:05;13.80;;;6.63;;
16472;SDS011;8347;52.486;13.432;2023-02-12T10:45:55;14.23;;;7.47;;
16472;SDS011;8347;52.486;13.432;2023-02-12T10:48:45;15.52;;;6.57;;
16472;SDS011;8347;52.486;13.432;2023-02-12T10:54:46;19.50;;;6.10;;
16472;SDS011;8347;52.486;13.432;2023-02-12T10:57:34;16.73;;;6.03;;
16472;SDS011;8347;52.486;13.432;2023-02-12T11:00:25;20.38;;;6.78;;
16472;SDS011;8347;52.486;13.432;2023-02-12T11:03:19;14.63;;;6.55;;
16472;SDS011;8347;52.486;13.432;2023-02-12T11:06:11;21.77;;;7.88;;
16472;SDS011;8347;52.486;13.432;2023-02-12T11:08:58;12.88;;;7.50;;
16472;SDS011;8347;52.486;13.432;2023-02-12T11:11:45;22.40;;;9.10;;
16472;SDS011;8347;52.486;13.432;2023-02-12T11:14:32;16.15;;;6.80;;
16472;SDS011;8347;52.486;13.432;2023-02-12T11:17:22;18.08;;;7.75;;
16472;SDS011;8347;52.486;13.432;2023-02-12T11:23:06;37.92;;;18.23;;
16472;SDS011;8347;52.486;13.432;2023-02-12T11:29:16;20.67;;;10.38;;
16472;SDS011;8347;52.486;13.432;2023-02-12T11:32:06;14.75;;;7.28;;
16472;SDS011;8347;52.486;13.432;2023-02-12T11:38:24;18.55;;;9.50;;
16472;SDS011;8347;52.486;13.432;2023-02-12T11:41:20;18.38;;;9.63;;
16472;SDS011;8347;52.486;13.432;2023-02-12T11:47:20;17.75;;;8.27;;
16472;SDS011;8347;52.486;13.432;2023-02-12T11:53:07;21.65;;;8.13;;
16472;SDS011;8347;52.486;13.432;2023-02-12T11:55:58;18.92;;;9.45;;
16472;SDS011;8347;52.486;13.432;2023-02-12T11:58:46;16.05;;;7.57;;
16472;SDS011;8347;52.486;13.432;2023-02-12T12:01:33;17.77;;;8.70;;
16472;SDS011;8347;52.486;13.432;2023-02-12T12:04:21;19.83;;;8.48;;
16472;SDS011;8347;52.486;13.432;2023-02-12T12:07:13;14.93;;;7.78;;
16472;SDS011;8347;52.486;13.432;2023-02-12T12:10:04;20.73;;;9.80;;
16472;SDS011;8347;52.486;13.432;2023-02-12T12:12:54;18.30;;;9.80;;
16472;SDS011;8347;52.486;13.432;2023-02-12T12:15:45;22.58;;;9.57;;
16472;SDS011;8347;52.486;13.432;2023-02-12T12:19:15;15.05;;;7.20;;
16472;SDS011;8347;52.486;13.432;2023-02-12T12:22:24;13.52;;;7.53;;
16472;SDS011;8347;52.486;13.432;2023-02-12T12:25:15;14.05;;;7.60;;
16472;SDS011;8347;52.486;13.432;2023-02-12T12:31:16;10.00;;;5.80;;
16472;SDS011;8347;52.486;13.432;2023-02-12T12:34:08;13.60;;;7.72;;
16472;SDS011;8347;52.486;13.432;2023-02-12T12:46:47;14.63;;;8.43;;
16472;SDS011;8347;52.486;13.432;2023-02-12T12:49:56;16.25;;;7.47;;
16472;SDS011;8347;52.486;13.432;2023-02-12T12:52:57;15.18;;;7.00;;
16472;SDS011;8347;52.486;13.432;2023-02-12T13:04:58;14.35;;;7.72;;
16472;SDS011;8347;52.486;13.432;2023-02-12T13:11:43;14.48;;;6.97;;
16472;SDS011;8347;52.486;13.432;2023-02-12T13:14:03;14.52;;;7.25;;
16472;SDS011;8347;52.486;13.432;2023-02-12T13:20:41;17.10;;;7.20;;
16472;SDS011;8347;52.486;13.432;2023-02-12T13:26:33;14.05;;;7.13;;
16472;SDS011;8347;52.486;13.432;2023-02-12T13:29:29;19.45;;;9.35;;
16472;SDS011;8347;52.486;13.432;2023-02-12T13:35:22;21.13;;;9.50;;
16472;SDS011;8347;52.486;13.432;2023-02-12T13:38:14;23.10;;;10.63;;
16472;SDS011;8347;52.486;13.432;2023-02-12T13:41:04;11.57;;;6.57;;
16472;SDS011;8347;52.486;13.432;2023-02-12T13:46:39;15.27;;;8.45;;
16472;SDS011;8347;52.486;13.432;2023-02-12T13:49:39;21.15;;;9.88;;
16472;SDS011;8347;52.486;13.432;2023-02-12T13:52:35;13.95;;;8.38;;
16472;SDS011;8347;52.486;13.432;2023-02-12T13:55:28;12.85;;;6.10;;
16472;SDS011;8347;52.486;13.432;2023-02-12T14:04:23;14.82;;;7.25;;
16472;SDS011;8347;52.486;13.432;2023-02-12T14:07:14;16.63;;;7.97;;
16472;SDS011;8347;52.486;13.432;2023-02-12T14:10:02;26.35;;;13.00;;
16472;SDS011;8347;52.486;13.432;2023-02-12T14:12:51;22.27;;;13.32;;
16472;SDS011;8347;52.486;13.432;2023-02-12T14:15:46;14.15;;;7.15;;
16472;SDS011;8347;52.486;13.432;2023-02-12T14:18:36;13.30;;;6.72;;
16472;SDS011;8347;52.486;13.432;2023-02-12T14:33:36;19.02;;;10.52;;
16472;SDS011;8347;52.486;13.432;2023-02-12T14:41:53;10.60;;;6.72;;
16472;SDS011;8347;52.486;13.432;2023-02-12T14:44:46;12.18;;;7.40;;
16472;SDS011;8347;52.486;13.432;2023-02-12T14:50:21;12.77;;;6.03;;
16472;SDS011;8347;52.486;13.432;2023-02-12T14:53:16;14.10;;;8.13;;
16472;SDS011;8347;52.486;13.432;2023-02-12T14:56:07;18.23;;;9.93;;
16472;SDS011;8347;52.486;13.432;2023-02-12T14:58:54;14.18;;;7.40;;
16472;SDS011;8347;52.486;13.432;2023-02-12T15:01:42;18.83;;;8.73;;
16472;SDS011;8347;52.486;13.432;2023-02-12T15:04:30;10.38;;;5.25;;
16472;SDS011;8347;52.486;13.432;2023-02-12T15:07:23;9.77;;;4.68;;
16472;SDS011;8347;52.486;13.432;2023-02-12T15:10:19;13.02;;;6.50;;
16472;SDS011;8347;52.486;13.432;2023-02-12T15:13:12;15.35;;;7.30;;
16472;SDS011;8347;52.486;13.432;2023-02-12T15:16:05;17.98;;;9.25;;
16472;SDS011;8347;52.486;13.432;2023-02-12T15:18:55;19.75;;;10.15;;
16472;SDS011;8347;52.486;13.432;2023-02-12T15:21:44;18.10;;;8.80;;
16472;SDS011;8347;52.486;13.432;2023-02-12T15:24:31;14.48;;;7.68;;
16472;SDS011;8347;52.486;13.432;2023-02-12T15:27:18;12.50;;;6.85;;
16472;SDS011;8347;52.486;13.432;2023-02-12T15:30:12;10.73;;;5.28;;
16472;SDS011;8347;52.486;13.432;2023-02-12T15:33:00;14.98;;;7.00;;
16472;SDS011;8347;52.486;13.432;2023-02-12T15:35:48;11.45;;;5.15;;
16472;SDS011;8347;52.486;13.432;2023-02-12T15:38:35;13.98;;;6.10;;
16472;SDS011;8347;52.486;13.432;2023-02-12T15:41:40;13.73;;;6.05;;
16472;SDS011;8347;52.486;13.432;2023-02-12T15:44:31;13.23;;;7.60;;
16472;SDS011;8347;52.486;13.432;2023-02-12T15:47:18;17.73;;;7.22;;
16472;SDS011;8347;52.486;13.432;2023-02-12T15:50:14;14.15;;;7.68;;
16472;SDS011;8347;52.486;13.432;2023-02-12T15:53:01;17.80;;;9.57;;
16472;SDS011;8347;52.486;13.432;2023-02-12T15:55:48;26.52;;;14.18;;
16472;SDS011;8347;52.486;13.432;2023-02-12T15:58:42;28.02;;;12.38;;
16472;SDS011;8347;52.486;13.432;2023-02-12T16:01:32;23.30;;;13.15;;
16472;SDS011;8347;52.486;13.432;2023-02-12T16:04:19;19.20;;;10.07;;
16472;SDS011;8347;52.486;13.432;2023-02-12T16:07:06;19.63;;;11.48;;
16472;SDS011;8347;52.486;13.432;2023-02-12T16:09:55;27.63;;;12.05;;
16472;SDS011;8347;52.486;13.432;2023-02-12T16:12:42;27.00;;;13.95;;
16472;SDS011;8347;52.486;13.432;2023-02-12T16:15:30;19.67;;;11.23;;
16472;SDS011;8347;52.486;13.432;2023-02-12T16:18:23;22.40;;;10.75;;
16472;SDS011;8347;52.486;13.432;2023-02-12T16:21:16;20.20;;;10.07;;
16472;SDS011;8347;52.486;13.432;2023-02-12T16:24:03;17.55;;;9.38;;
16472;SDS011;8347;52.486;13.432;2023-02-12T16:27:06;20.27;;;9.75;;
16472;SDS011;8347;52.486;13.432;2023-02-12T16:29:55;18.23;;;9.20;;
16472;SDS011;8347;52.486;13.432;2023-02-12T16:32:44;16.88;;;8.25;;
16472;SDS011;8347;52.486;13.432;2023-02-12T16:35:32;16.38;;;8.45;;
16472;SDS011;8347;52.486;13.432;2023-02-12T16:38:41;14.25;;;6.90;;
16472;SDS011;8347;52.486;13.432;2023-02-12T16:41:30;17.13;;;8.35;;
16472;SDS011;8347;52.486;13.432;2023-02-12T16:47:11;14.07;;;6.30;;
16472;SDS011;8347;52.486;13.432;2023-02-12T16:50:13;16.13;;;8.10;;
16472;SDS011;8347;52.486;13.432;2023-02-12T16:53:05;21.70;;;10.05;;
16472;SDS011;8347;52.486;13.432;2023-02-12T16:55:52;27.17;;;11.63;;
16472;SDS011;8347;52.486;13.432;2023-02-12T16:58:39;22.75;;;10.73;;
16472;SDS011;8347;52.486;13.432;2023-02-12T17:01:26;18.73;;;8.98;;
16472;SDS011;8347;52.486;13.432;2023-02-12T17:04:13;21.95;;;10.57;;
16472;SDS011;8347;52.486;13.432;2023-02-12T17:07:01;30.02;;;13.25;;
16472;SDS011;8347;52.486;13.432;2023-02-12T17:09:47;25.60;;;13.88;;
16472;SDS011;8347;52.486;13.432;2023-02-12T17:12:34;32.15;;;14.52;;
16472;SDS011;8347;52.486;13.432;2023-02-12T17:15:32;19.58;;;9.68;;
16472;SDS011;8347;52.486;13.432;2023-02-12T17:18:26;16.05;;;8.30;;
16472;SDS011;8347;52.486;13.432;2023-02-12T17:21:20;19.92;;;10.63;;
16472;SDS011;8347;52.486;13.432;2023-02-12T17:24:19;15.70;;;8.77;;
16472;SDS011;8347;52.486;13.432;2023-02-12T17:27:07;15.05;;;7.38;;
16472;SDS011;8347;52.486;13.432;2023-02-12T17:29:56;16.23;;;9.02;;
16472;SDS011;8347;52.486;13.432;2023-02-12T17:32:42;26.83;;;13.73;;
16472;SDS011;8347;52.486;13.432;2023-02-12T17:35:29;17.80;;;9.90;;
16472;SDS011;8347;52.486;13.432;2023-02-12T17:38:16;20.70;;;9.35;;
16472;SDS011;8347;52.486;13.432;2023-02-12T17:41:06;13.13;;;6.88;;
16472;SDS011;8347;52.486;13.432;2023-02-12T17:43:53;11.73;;;6.35;;
16472;SDS011;8347;52.486;13.432;2023-02-12T17:46:40;11.57;;;6.18;;
16472;SDS011;8347;52.486;13.432;2023-02-12T17:49:27;12.38;;;6.57;;
16472;SDS011;8347;52.486;13.432;2023-02-12T17:52:15;14.93;;;7.00;;
16472;SDS011;8347;52.486;13.432;2023-02-12T17:55:02;14.50;;;7.15;;
16472;SDS011;8347;52.486;13.432;2023-02-12T17:57:53;16.88;;;8.05;;
16472;SDS011;8347;52.486;13.432;2023-02-12T18:00:40;47.58;;;20.45;;
16472;SDS011;8347;52.486;13.432;2023-02-12T18:03:26;42.13;;;19.35;;
16472;SDS011;8347;52.486;13.432;2023-02-12T18:06:13;26.40;;;13.20;;
16472;SDS011;8347;52.486;13.432;2023-02-12T18:09:01;19.20;;;9.73;;
16472;SDS011;8347;52.486;13.432;2023-02-12T18:11:48;15.85;;;8.75;;
16472;SDS011;8347;52.486;13.432;2023-02-12T18:14:34;18.02;;;10.68;;
16472;SDS011;8347;52.486;13.432;2023-02-12T18:17:21;21.10;;;10.77;;
16472;SDS011;8347;52.486;13.432;2023-02-12T18:20:08;20.70;;;9.75;;
16472;SDS011;8347;52.486;13.432;2023-02-12T18:22:55;21.70;;;9.63;;
16472;SDS011;8347;52.486;13.432;2023-02-12T18:25:42;24.25;;;12.23;;
16472;SDS011;8347;52.486;13.432;2023-02-12T18:28:29;21.85;;;11.40;;
16472;SDS011;8347;52.486;13.432;2023-02-12T18:31:17;25.65;;;12.40;;
16472;SDS011;8347;52.486;13.432;2023-02-12T18:34:04;24.85;;;11.85;;
16472;SDS011;8347;52.486;13.432;2023-02-12T18:36:51;18.45;;;9.48;;
16472;SDS011;8347;52.486;13.432;2023-02-12T18:39:38;17.25;;;10.38;;
16472;SDS011;8347;52.486;13.432;2023-02-12T18:42:24;24.50;;;13.63;;
16472;SDS011;8347;52.486;13.432;2023-02-12T18:45:13;23.77;;;12.25;;
16472;SDS011;8347;52.486;13.432;2023-02-12T18:47:59;26.50;;;13.43;;